createdAt,value
2022-07-25T00:01:05.316Z,6.40
2022-07-25T00:04:12.174Z,6.53
2022-07-25T00:07:16.295Z,6.30
2022-07-25T00:10:20.180Z,6.57
2022-07-25T00:13:23.910Z,6.70
2022-07-25T00:16:29.222Z,6.00
2022-07-25T00:19:32.998Z,6.53
2022-07-25T00:22:36.956Z,6.93
2022-07-25T00:25:40.769Z,6.47
2022-07-25T00:28:44.939Z,6.30
2022-07-25T00:31:50.130Z,6.70
2022-07-25T00:34:54.019Z,6.63
2022-07-25T00:37:59.343Z,6.40
2022-07-25T00:41:04.810Z,6.70
2022-07-25T00:44:09.062Z,6.60
2022-07-25T00:47:14.663Z,6.60
2022-07-25T00:50:18.572Z,6.67
2022-07-25T00:53:23.415Z,6.33
2022-07-25T00:56:27.953Z,6.30
2022-07-25T00:59:32.251Z,6.70
2022-07-25T01:02:37.500Z,6.70
2022-07-25T01:05:41.405Z,7.03
2022-07-25T01:08:45.215Z,6.70
2022-07-25T01:11:49.183Z,6.60
2022-07-25T01:14:53.121Z,6.90
2022-07-25T01:17:58.508Z,6.57
2022-07-25T01:21:05.412Z,6.20
2022-07-25T01:24:10.438Z,6.53
2022-07-25T01:27:17.431Z,6.47
2022-07-25T01:30:22.613Z,6.50
2022-07-25T01:33:26.638Z,6.43
2022-07-25T01:36:31.846Z,6.57
2022-07-25T01:39:35.837Z,6.70
2022-07-25T01:42:39.568Z,6.60
2022-07-25T01:45:43.710Z,6.50
2022-07-25T01:48:47.830Z,6.60
2022-07-25T01:51:52.974Z,6.30
2022-07-25T01:54:56.981Z,6.37
2022-07-25T01:58:00.782Z,6.27
2022-07-25T02:01:04.714Z,6.23
2022-07-25T02:04:09.269Z,6.10
2022-07-25T02:07:14.623Z,6.30
2022-07-25T02:10:18.489Z,5.80
2022-07-25T02:13:22.454Z,5.90
2022-07-25T02:16:29.248Z,5.77
2022-07-25T02:19:33.369Z,5.73
2022-07-25T02:22:38.544Z,5.77
2022-07-25T02:25:42.340Z,6.00
2022-07-25T02:28:46.096Z,5.70
2022-07-25T02:31:50.063Z,5.63
2022-07-25T02:34:54.222Z,5.57
2022-07-25T02:37:59.307Z,5.40
2022-07-25T02:41:03.217Z,5.37
2022-07-25T02:44:07.491Z,5.10
2022-07-25T02:47:11.581Z,5.23
2022-07-25T02:50:15.338Z,5.03
2022-07-25T02:53:34.158Z,5.40
2022-07-25T02:56:44.266Z,4.90
2022-07-25T02:59:48.022Z,4.80
2022-07-25T03:02:52.082Z,5.10
2022-07-25T03:05:55.925Z,5.33
2022-07-25T03:09:01.011Z,4.97
2022-07-25T03:12:05.316Z,4.63
2022-07-25T03:15:10.460Z,4.60
2022-07-25T03:18:14.194Z,4.63
2022-07-25T03:21:18.273Z,4.70
2022-07-25T03:24:23.432Z,4.43
2022-07-25T03:27:27.150Z,4.70
2022-07-25T03:30:30.897Z,4.40
2022-07-25T03:33:35.049Z,4.33
2022-07-25T03:36:38.766Z,4.47
2022-07-25T03:39:43.965Z,4.60
2022-07-25T03:42:47.677Z,4.57
2022-07-25T03:45:51.512Z,4.43
2022-07-25T03:48:55.989Z,4.20
2022-07-25T03:52:00.288Z,3.87
2022-07-25T03:55:06.118Z,4.13
2022-07-25T03:58:09.891Z,3.90
2022-07-25T04:01:13.755Z,3.80
2022-07-25T04:04:18.066Z,4.27
2022-07-25T04:07:21.838Z,4.20
2022-07-25T04:10:26.958Z,4.07
2022-07-25T04:13:30.782Z,4.20
2022-07-25T04:16:35.082Z,3.83
2022-07-25T04:19:40.644Z,3.80
2022-07-25T04:22:47.010Z,3.77
2022-07-25T04:25:52.378Z,3.70
2022-07-25T04:28:57.739Z,4.00
2022-07-25T04:32:01.557Z,3.67
2022-07-25T04:35:06.027Z,3.77
2022-07-25T04:38:12.214Z,3.57
2022-07-25T04:41:17.605Z,3.23
2022-07-25T04:44:21.313Z,3.37
2022-07-25T04:47:25.041Z,3.40
2022-07-25T04:50:28.972Z,3.50
2022-07-25T04:53:32.705Z,3.23
2022-07-25T04:56:37.953Z,3.50
2022-07-25T04:59:41.728Z,3.50
2022-07-25T05:02:45.467Z,3.13
2022-07-25T05:05:49.261Z,3.27
2022-07-25T05:08:52.980Z,3.30
2022-07-25T05:11:58.076Z,3.20
2022-07-25T05:15:01.832Z,3.40
2022-07-25T05:18:06.139Z,3.10
2022-07-25T05:21:11.753Z,2.83
2022-07-25T05:24:15.522Z,3.13
2022-07-25T05:27:20.774Z,3.30
2022-07-25T05:30:24.533Z,3.23
2022-07-25T05:33:28.219Z,3.27
2022-07-25T05:36:31.915Z,3.20
2022-07-25T05:39:37.452Z,3.20
2022-07-25T05:42:42.567Z,3.00
2022-07-25T05:45:47.407Z,3.10
2022-07-25T05:48:51.291Z,3.00
2022-07-25T05:51:55.106Z,3.13
2022-07-25T05:54:58.854Z,3.40
2022-07-25T05:58:04.054Z,3.07
2022-07-25T06:01:08.196Z,3.30
2022-07-25T06:04:11.890Z,3.23
2022-07-25T06:07:16.889Z,2.93
2022-07-25T06:10:21.290Z,2.97
2022-07-25T06:13:26.357Z,2.87
2022-07-25T06:16:31.899Z,3.30
2022-07-25T06:19:35.796Z,3.23
2022-07-25T06:22:40.673Z,3.00
2022-07-25T06:25:44.649Z,3.23
2022-07-25T06:28:55.392Z,3.30
2022-07-25T06:31:59.168Z,3.40
2022-07-25T06:35:03.004Z,3.23
2022-07-25T06:38:06.993Z,3.20
2022-07-25T06:41:15.518Z,3.57
2022-07-25T06:44:20.713Z,3.13
2022-07-25T06:47:24.528Z,3.17
2022-07-25T06:50:28.407Z,3.57
2022-07-25T06:53:32.129Z,3.53
2022-07-25T06:56:36.022Z,3.17
2022-07-25T06:59:41.229Z,3.27
2022-07-25T07:03:03.189Z,3.50
2022-07-25T07:06:07.441Z,3.40
2022-07-25T07:09:11.305Z,3.50
2022-07-25T07:12:15.201Z,3.80
2022-07-25T07:15:20.346Z,3.17
2022-07-25T07:18:24.156Z,3.50
2022-07-25T07:21:27.889Z,3.43
2022-07-25T07:24:33.098Z,3.67
2022-07-25T07:27:37.524Z,3.67
2022-07-25T07:34:07.460Z,3.43
2022-07-25T07:37:11.254Z,3.70
2022-07-25T07:40:18.033Z,3.73
2022-07-25T07:43:30.237Z,3.60
2022-07-25T07:46:45.305Z,3.50
2022-07-25T07:49:58.283Z,3.60
2022-07-25T07:53:11.787Z,3.20
2022-07-25T07:56:23.736Z,3.63
2022-07-25T07:59:37.620Z,3.30
2022-07-25T08:02:47.131Z,3.73
2022-07-25T08:05:51.924Z,3.10
2022-07-25T08:08:56.326Z,3.47
2022-07-25T08:12:00.258Z,3.20
2022-07-25T08:15:04.347Z,3.60
2022-07-25T08:18:17.355Z,3.60
2022-07-25T08:21:22.177Z,3.40
2022-07-25T08:24:26.065Z,3.10
2022-07-25T08:27:29.909Z,3.60
2022-07-25T08:30:35.432Z,3.50
2022-07-25T08:33:40.881Z,3.33
2022-07-25T08:36:44.719Z,3.23
2022-07-25T08:39:49.615Z,3.40
2022-07-25T08:42:54.938Z,2.97
2022-07-25T08:46:01.988Z,2.97
2022-07-25T08:49:08.168Z,4.10
2022-07-25T08:52:12.149Z,4.10
2022-07-25T08:55:20.159Z,3.83
2022-07-25T08:58:24.389Z,3.87
2022-07-25T09:01:31.659Z,3.90
2022-07-25T09:04:39.899Z,4.00
2022-07-25T09:07:43.740Z,3.73
2022-07-25T09:10:48.765Z,3.80
2022-07-25T09:13:59.218Z,4.07
2022-07-25T09:17:21.924Z,3.70
2022-07-25T09:20:40.484Z,3.70
2022-07-25T09:23:44.295Z,3.80
2022-07-25T09:26:50.436Z,3.80
2022-07-25T09:29:54.366Z,3.53
2022-07-25T09:33:02.372Z,4.03
2022-07-25T09:36:13.633Z,3.60
2022-07-25T09:39:17.537Z,3.57
2022-07-25T09:42:23.640Z,3.70
2022-07-25T09:45:31.420Z,3.73
2022-07-25T09:48:35.718Z,3.63
2022-07-25T09:51:41.182Z,4.10
2022-07-25T09:54:45.480Z,3.43
2022-07-25T09:57:50.047Z,3.50
2022-07-25T10:00:58.725Z,3.60
2022-07-25T10:04:14.405Z,3.67
2022-07-25T10:07:25.861Z,3.47
2022-07-25T10:10:33.879Z,3.90
2022-07-25T10:13:39.230Z,3.30
2022-07-25T10:16:47.705Z,3.50
2022-07-25T10:19:56.871Z,3.60
2022-07-25T10:23:03.967Z,3.60
2022-07-25T10:26:13.873Z,4.10
2022-07-25T10:29:17.777Z,4.03
2022-07-25T10:32:26.214Z,4.00
2022-07-25T10:35:30.905Z,3.57
2022-07-25T10:38:39.922Z,3.97
2022-07-25T10:41:50.283Z,3.83
2022-07-25T10:44:57.538Z,4.00
2022-07-25T10:48:08.295Z,3.80
2022-07-25T10:51:13.355Z,3.87
2022-07-25T10:54:19.379Z,3.70
2022-07-25T10:57:26.209Z,3.50
2022-07-25T11:00:34.018Z,3.67
2022-07-25T11:03:37.784Z,3.50
2022-07-25T11:06:43.529Z,3.90
2022-07-25T11:09:58.032Z,3.70
2022-07-25T11:13:01.806Z,3.87
2022-07-25T11:16:06.374Z,3.73
2022-07-25T11:19:17.966Z,3.63
2022-07-25T11:22:23.176Z,3.77
2022-07-25T11:25:28.383Z,3.50
2022-07-25T11:28:39.438Z,4.03
2022-07-25T11:31:43.769Z,3.90
2022-07-25T11:34:50.470Z,3.70
2022-07-25T11:37:55.393Z,3.90
2022-07-25T11:41:00.613Z,4.00
2022-07-25T11:44:04.434Z,3.90
2022-07-25T11:47:09.967Z,3.70
2022-07-25T11:50:15.826Z,3.80
2022-07-25T11:53:19.938Z,3.70
2022-07-25T11:56:42.585Z,4.07
2022-07-25T11:59:47.039Z,3.90
2022-07-25T12:02:51.636Z,3.70
2022-07-25T12:05:56.318Z,3.70
2022-07-25T12:09:00.073Z,3.65
2022-07-25T12:12:06.020Z,3.77
2022-07-25T12:15:11.521Z,3.90
2022-07-25T12:18:15.332Z,3.70
2022-07-25T12:21:19.154Z,3.53
2022-07-25T12:24:23.607Z,3.70
2022-07-25T12:27:28.819Z,3.40
2022-07-25T12:30:34.089Z,3.50
2022-07-25T12:33:38.340Z,3.63
2022-07-25T12:36:45.264Z,3.67
2022-07-25T12:39:49.252Z,3.60
2022-07-25T12:42:54.520Z,3.30
2022-07-25T12:45:58.512Z,3.53
2022-07-25T12:49:03.795Z,3.80
2022-07-25T12:52:07.844Z,3.37
2022-07-25T12:55:14.405Z,3.70
2022-07-25T12:58:21.020Z,4.80
2022-07-25T13:01:25.039Z,5.00
2022-07-25T13:04:29.200Z,4.60
2022-07-25T13:07:33.906Z,4.50
2022-07-25T13:10:37.735Z,5.03
2022-07-25T13:13:42.905Z,4.87
2022-07-25T13:16:48.313Z,5.07
2022-07-25T13:19:52.166Z,5.20
2022-07-25T13:22:56.036Z,5.13
2022-07-25T13:26:01.301Z,5.07
2022-07-25T13:29:10.221Z,5.23
2022-07-25T13:32:14.809Z,5.43
2022-07-25T13:35:20.617Z,5.23
2022-07-25T13:38:25.241Z,5.40
2022-07-25T13:41:29.217Z,4.90
2022-07-25T13:44:34.845Z,5.17
2022-07-25T13:47:38.738Z,6.07
2022-07-25T13:50:42.567Z,5.30
2022-07-25T13:53:46.427Z,5.77
2022-07-25T13:56:50.331Z,5.50
2022-07-25T13:59:55.509Z,5.37
2022-07-25T14:03:00.265Z,5.43
2022-07-25T14:06:04.313Z,5.70
2022-07-25T14:09:08.750Z,5.80
2022-07-25T14:12:12.846Z,5.30
2022-07-25T14:15:18.006Z,6.00
2022-07-25T14:18:21.904Z,5.97
2022-07-25T14:21:25.745Z,6.00
2022-07-25T14:24:29.460Z,6.20
2022-07-25T14:27:34.283Z,5.90
2022-07-25T14:30:39.567Z,6.10
2022-07-25T14:33:43.377Z,5.93
2022-07-25T14:36:47.773Z,5.57
2022-07-25T14:39:51.737Z,5.67
2022-07-25T14:42:55.495Z,6.07
2022-07-25T14:46:00.568Z,6.00
2022-07-25T14:49:13.018Z,5.83
2022-07-25T14:52:17.282Z,5.83
2022-07-25T14:55:22.313Z,5.83
2022-07-25T14:58:26.198Z,6.00
2022-07-25T15:01:31.648Z,6.57
2022-07-25T15:04:35.513Z,6.03
2022-07-25T15:07:39.938Z,5.60
2022-07-25T15:10:43.737Z,6.20
2022-07-25T15:13:47.532Z,6.00
2022-07-25T15:16:52.774Z,5.97
2022-07-25T15:19:57.030Z,6.00
2022-07-25T15:23:00.850Z,5.57
2022-07-25T15:26:05.821Z,5.87
2022-07-25T15:29:11.907Z,6.00
2022-07-25T15:32:17.855Z,6.20
2022-07-25T15:35:21.980Z,5.90
2022-07-25T15:38:25.781Z,5.63
2022-07-25T15:41:29.618Z,5.70
2022-07-25T15:44:33.654Z,5.53
2022-07-25T15:47:39.754Z,5.83
2022-07-25T15:50:45.765Z,6.03
2022-07-25T15:53:49.592Z,6.03
2022-07-25T15:56:53.558Z,5.93
2022-07-25T15:59:57.306Z,6.47
2022-07-25T16:03:02.765Z,6.47
2022-07-25T16:06:06.719Z,6.50
2022-07-25T16:09:12.387Z,6.10
2022-07-25T16:12:16.529Z,5.80
2022-07-25T16:15:20.536Z,6.33
2022-07-25T16:18:26.937Z,5.97
2022-07-25T16:21:31.121Z,6.07
2022-07-25T16:24:34.857Z,5.63
2022-07-25T16:27:39.541Z,6.07
2022-07-25T16:30:43.752Z,5.27
2022-07-25T16:33:48.900Z,5.90
2022-07-25T16:36:53.919Z,5.77
2022-07-25T16:39:57.632Z,6.10
2022-07-25T16:43:01.387Z,5.53
2022-07-25T16:46:05.374Z,6.03
2022-07-25T16:49:11.543Z,6.05
2022-07-25T16:52:15.777Z,5.60
2022-07-25T16:55:19.637Z,5.73
2022-07-25T16:58:23.412Z,5.43
2022-07-25T17:01:27.220Z,5.10
2022-07-25T17:04:32.454Z,5.27
2022-07-25T17:07:36.438Z,5.30
2022-07-25T17:10:40.564Z,5.43
2022-07-25T17:13:44.385Z,5.47
2022-07-25T17:16:48.242Z,5.33
2022-07-25T17:19:59.444Z,5.37
2022-07-25T17:23:03.734Z,5.53
2022-07-25T17:26:07.556Z,5.87
2022-07-25T17:29:11.272Z,5.13
2022-07-25T17:32:15.025Z,5.53
2022-07-25T17:35:20.338Z,5.53
2022-07-25T17:38:27.027Z,5.40
2022-07-25T17:41:33.192Z,5.50
2022-07-25T17:44:36.999Z,5.50
2022-07-25T17:47:41.021Z,5.37
2022-07-25T17:50:46.428Z,5.60
2022-07-25T17:53:51.795Z,5.30
2022-07-25T17:56:55.648Z,4.90
2022-07-25T17:59:59.430Z,5.10
2022-07-25T18:03:03.364Z,5.50
2022-07-25T18:06:09.189Z,5.13
2022-07-25T18:09:13.058Z,5.03
2022-07-25T18:12:16.837Z,4.57
2022-07-25T18:15:20.729Z,4.83
2022-07-25T18:18:24.604Z,4.60
2022-07-25T18:21:30.302Z,4.80
2022-07-25T18:24:34.291Z,5.03
2022-07-25T18:27:38.461Z,4.90
2022-07-25T18:30:42.261Z,4.83
2022-07-25T18:33:46.014Z,5.03
2022-07-25T18:36:51.281Z,4.87
2022-07-25T18:39:55.039Z,4.50
2022-07-25T18:42:58.802Z,4.60
2022-07-25T18:46:03.183Z,4.97
2022-07-25T18:49:08.632Z,4.43
2022-07-25T18:52:13.885Z,4.73
2022-07-25T18:55:17.748Z,4.50
2022-07-25T18:58:21.616Z,4.63
2022-07-25T19:01:25.388Z,4.80
2022-07-25T19:04:31.265Z,4.40
2022-07-25T19:07:36.753Z,4.47
2022-07-25T19:10:41.074Z,4.57
2022-07-25T19:13:49.903Z,4.67
2022-07-25T19:16:54.712Z,4.53
2022-07-25T19:19:58.463Z,4.33
2022-07-25T19:23:03.610Z,4.83
2022-07-25T19:26:09.235Z,4.70
2022-07-25T19:29:12.970Z,4.83
2022-07-25T19:32:18.277Z,4.60
2022-07-25T19:35:26.283Z,4.80
2022-07-25T19:38:31.614Z,5.20
2022-07-25T19:41:35.476Z,4.80
2022-07-25T19:44:39.125Z,4.73
2022-07-25T19:47:43.666Z,4.77
2022-07-25T19:50:47.441Z,4.80
2022-07-25T19:53:52.534Z,4.63
2022-07-25T19:56:56.326Z,4.33
2022-07-25T20:00:00.102Z,4.60
2022-07-25T20:03:03.986Z,4.40
2022-07-25T20:06:08.938Z,4.80
2022-07-25T20:09:14.612Z,4.90
2022-07-25T20:12:18.854Z,4.47
2022-07-25T20:15:22.627Z,4.83
2022-07-25T20:18:26.562Z,4.70
2022-07-25T20:21:30.698Z,4.60
2022-07-25T20:24:36.270Z,4.57
2022-07-25T20:27:40.357Z,4.70
2022-07-25T20:30:44.863Z,4.70
2022-07-25T20:33:48.775Z,4.50
2022-07-25T20:36:52.710Z,4.30
2022-07-25T20:39:57.806Z,4.30
2022-07-25T20:43:04.046Z,4.67
2022-07-25T20:46:09.557Z,3.97
2022-07-25T20:49:14.122Z,4.03
2022-07-25T20:52:18.040Z,4.10
2022-07-25T20:55:23.432Z,3.73
2022-07-25T20:58:27.290Z,4.07
2022-07-25T21:01:31.939Z,4.40
2022-07-25T21:04:35.821Z,3.70
2022-07-25T21:07:39.689Z,3.70
2022-07-25T21:10:44.972Z,3.63
2022-07-25T21:13:49.045Z,3.57
2022-07-25T21:16:52.908Z,3.87
2022-07-25T21:19:56.831Z,4.10
2022-07-25T21:23:00.823Z,3.80
2022-07-25T21:26:06.125Z,3.50
2022-07-25T21:29:11.356Z,3.30
2022-07-25T21:32:17.259Z,3.73
2022-07-25T21:35:21.245Z,3.80
2022-07-25T21:38:27.606Z,3.57
2022-07-25T21:41:34.152Z,3.60
2022-07-25T21:44:40.895Z,3.37
2022-07-25T21:47:44.943Z,3.73
2022-07-25T21:50:47.811Z,3.87
2022-07-25T21:53:53.984Z,4.03
2022-07-25T21:56:59.064Z,3.50
2022-07-25T22:00:02.994Z,3.87
2022-07-25T22:03:08.034Z,4.30
2022-07-25T22:06:12.062Z,4.00
2022-07-25T22:09:16.272Z,3.83
2022-07-25T22:12:21.652Z,3.40
2022-07-25T22:15:25.402Z,3.63
2022-07-25T22:18:29.169Z,3.60
2022-07-25T22:21:33.713Z,3.67
2022-07-25T22:24:37.499Z,3.70
2022-07-25T22:27:42.664Z,3.70
2022-07-25T22:30:46.331Z,3.20
2022-07-25T22:33:50.181Z,3.40
2022-07-25T22:36:54.184Z,3.10
2022-07-25T22:40:01.162Z,3.80
2022-07-25T22:43:06.746Z,3.03
2022-07-25T22:46:10.740Z,3.27
2022-07-25T22:49:14.538Z,3.33
2022-07-25T22:52:18.313Z,3.03
2022-07-25T22:55:22.108Z,3.40
2022-07-25T22:58:27.669Z,2.93
2022-07-25T23:01:31.388Z,3.00
2022-07-25T23:04:35.204Z,3.23
2022-07-25T23:07:39.484Z,3.00
2022-07-25T23:10:43.151Z,2.87
2022-07-25T23:13:48.251Z,2.83
2022-07-25T23:17:05.861Z,2.37
2022-07-25T23:20:10.976Z,2.73
2022-07-25T23:23:14.845Z,2.83
2022-07-25T23:26:18.580Z,2.83
2022-07-25T23:29:23.675Z,2.90
2022-07-25T23:32:27.376Z,2.73
2022-07-25T23:35:31.311Z,2.73
2022-07-25T23:38:35.362Z,2.40
2022-07-25T23:41:39.093Z,2.63
2022-07-25T23:44:44.521Z,2.57
2022-07-25T23:47:48.484Z,2.40
2022-07-25T23:50:52.605Z,2.40
2022-07-25T23:53:56.376Z,2.30
2022-07-25T23:57:00.007Z,2.23
